Time;durP1;ratioP1;P1;durP2;ratioP2;P2;SDS_P1;SDS_P2;PMS_P1;PMS_P2;Temp;Humidity;BMP_temperature;BMP_pressure;BME280_temperature;BME280_humidity;BME280_pressure;Samples;Min_cycle;Max_cycle;Signal;HPM_P1;HPM_P2
2024/01/06 00:00:21;;;;;;;2.40;1.33;;;22.70;35.20;;;;;;4964376;28;20054;-57
2024/01/06 00:02:48;;;;;;;3.38;1.35;;;22.70;35.20;;;;;;4958291;28;20077;-55
2024/01/06 00:05:15;;;;;;;2.05;1.27;;;22.70;35.20;;;;;;4962570;28;20085;-56
2024/01/06 00:07:42;;;;;;;2.65;1.20;;;22.60;35.20;;;;;;4967909;28;20499;-57
2024/01/06 00:10:10;;;;;;;2.00;1.38;;;22.60;35.10;;;;;;4965368;28;20073;-56
2024/01/06 00:12:37;;;;;;;2.45;1.30;;;22.70;35.20;;;;;;4961926;28;20074;-53
2024/01/06 00:15:05;;;;;;;2.10;1.30;;;22.60;35.10;;;;;;4962164;28;20058;-56
2024/01/06 00:17:34;;;;;;;3.35;1.20;;;22.60;35.10;;;;;;4965373;28;20048;-54
2024/01/06 00:20:02;;;;;;;2.17;1.30;;;22.50;35.00;;;;;;4966112;28;20501;-56
2024/01/06 00:22:29;;;;;;;1.92;0.85;;;22.50;35.00;;;;;;4965799;28;20439;-54
2024/01/06 00:24:56;;;;;;;4.05;1.02;;;22.50;35.10;;;;;;4964272;28;20057;-56
2024/01/06 00:27:23;;;;;;;1.88;1.00;;;22.50;35.10;;;;;;4964981;28;20492;-56
2024/01/06 00:29:51;;;;;;;1.55;1.00;;;22.50;35.10;;;;;;4965937;28;20051;-57
2024/01/06 00:32:18;;;;;;;1.77;0.95;;;22.40;35.10;;;;;;4965381;28;20055;-56
2024/01/06 00:34:47;;;;;;;1.77;0.90;;;22.40;35.10;;;;;;4963934;28;20047;-56
2024/01/06 00:37:14;;;;;;;2.20;1.13;;;22.40;35.10;;;;;;4964107;28;20479;-56
2024/01/06 00:39:41;;;;;;;1.48;0.90;;;22.40;35.10;;;;;;4965199;28;20051;-56
2024/01/06 00:42:09;;;;;;;1.20;0.93;;;22.40;35.50;;;;;;4964465;28;20054;-55
2024/01/06 00:44:37;;;;;;;1.98;0.95;;;22.30;35.20;;;;;;4962790;28;20435;-56
2024/01/06 00:47:05;;;;;;;2.00;1.10;;;22.30;35.40;;;;;;4963259;28;20054;-54
2024/01/06 00:49:32;;;;;;;1.77;0.90;;;22.30;35.40;;;;;;4964249;28;20050;-55
2024/01/06 00:52:00;;;;;;;1.63;0.82;;;22.40;35.50;;;;;;4963193;28;20592;-56
2024/01/06 00:54:28;;;;;;;0.90;0.75;;;22.40;35.50;;;;;;4961567;28;20057;-54
2024/01/06 00:56:55;;;;;;;1.52;0.80;;;22.50;35.60;;;;;;4963796;28;20054;-55
2024/01/06 00:59:22;;;;;;;1.70;0.77;;;22.50;35.50;;;;;;4965464;28;20063;-54
2024/01/06 01:01:49;;;;;;;1.27;0.80;;;22.50;35.50;;;;;;4964591;28;20521;-55
2024/01/06 01:04:16;;;;;;;1.63;0.80;;;22.60;35.50;;;;;;4962371;28;20059;-57
2024/01/06 01:06:43;;;;;;;1.27;0.70;;;22.60;35.50;;;;;;4964557;28;20054;-55
2024/01/06 01:09:13;;;;;;;1.02;0.60;;;22.60;35.90;;;;;;4962402;28;20055;-56
2024/01/06 01:11:40;;;;;;;1.80;0.73;;;22.60;35.40;;;;;;4963802;28;20058;-56
2024/01/06 01:14:08;;;;;;;0.98;0.68;;;22.70;35.40;;;;;;4960687;28;20050;-58
2024/01/06 01:16:36;;;;;;;1.05;0.63;;;22.70;35.40;;;;;;4960579;28;20384;-57
2024/01/06 01:19:03;;;;;;;1.23;0.70;;;22.70;35.30;;;;;;4964077;28;20121;-59
2024/01/06 01:21:30;;;;;;;0.93;0.40;;;22.70;35.30;;;;;;4967059;28;20055;-58
2024/01/06 01:23:58;;;;;;;0.85;0.60;;;22.70;35.20;;;;;;4969055;28;20050;-59
2024/01/06 01:26:26;;;;;;;1.00;0.65;;;22.70;35.20;;;;;;4969280;28;20415;-58
2024/01/06 01:28:54;;;;;;;0.93;0.60;;;22.70;35.20;;;;;;4966985;28;20057;-58
2024/01/06 01:31:21;;;;;;;0.70;0.50;;;22.70;35.20;;;;;;4968136;28;20403;-59
2024/01/06 01:33:48;;;;;;;1.90;0.80;;;22.70;35.20;;;;;;4968247;28;20046;-58
2024/01/06 01:36:18;;;;;;;1.30;0.50;;;22.70;35.20;;;;;;4966208;28;20055;-58
2024/01/06 01:38:45;;;;;;;0.80;0.60;;;22.70;35.20;;;;;;4967383;28;20825;-58
2024/01/06 01:41:12;;;;;;;0.90;0.60;;;22.70;35.20;;;;;;4965201;28;20062;-58
2024/01/06 01:43:40;;;;;;;0.50;0.50;;;22.70;35.20;;;;;;4965218;28;20047;-58
2024/01/06 01:46:08;;;;;;;0.73;0.57;;;22.70;35.20;;;;;;4970379;28;20046;-58
2024/01/06 01:48:35;;;;;;;0.50;0.50;;;22.60;35.20;;;;;;4964546;28;20058;-58
2024/01/06 01:51:03;;;;;;;0.82;0.40;;;22.60;35.20;;;;;;4959263;28;20512;-58
2024/01/06 01:53:32;;;;;;;0.52;0.40;;;22.60;35.20;;;;;;4966812;28;20054;-56
2024/01/06 01:55:59;;;;;;;0.50;0.40;;;22.60;35.20;;;;;;4964457;28;20553;-57
2024/01/06 01:58:26;;;;;;;0.30;0.30;;;22.50;35.10;;;;;;4964212;28;20388;-57
2024/01/06 02:00:55;;;;;;;1.05;0.60;;;22.50;35.10;;;;;;4962085;28;20047;-59
2024/01/06 02:03:25;;;;;;;0.63;0.57;;;22.50;35.20;;;;;;4968319;28;20054;-57
2024/01/06 02:05:52;;;;;;;0.55;0.40;;;22.50;35.20;;;;;;4969069;28;20054;-58
2024/01/06 02:08:19;;;;;;;0.40;0.38;;;22.50;35.10;;;;;;4963355;28;20043;-58
2024/01/06 02:10:47;;;;;;;1.35;0.50;;;22.50;35.10;;;;;;4968837;28;20062;-57
2024/01/06 02:13:14;;;;;;;1.40;0.70;;;22.50;35.20;;;;;;4970922;28;20070;-57
2024/01/06 02:15:41;;;;;;;2.70;0.50;;;22.40;35.20;;;;;;4965673;28;20051;-58
2024/01/06 02:18:10;;;;;;;0.75;0.47;;;22.40;35.20;;;;;;4965097;28;20051;-56
2024/01/06 02:20:38;;;;;;;1.08;0.43;;;22.40;35.30;;;;;;4967089;28;20059;-58
2024/01/06 02:23:07;;;;;;;0.52;0.40;;;22.40;35.40;;;;;;4966408;28;20403;-56
2024/01/06 02:25:35;;;;;;;0.65;0.30;;;22.40;35.40;;;;;;4968591;28;20050;-53
2024/01/06 02:28:02;;;;;;;0.60;0.40;;;22.40;35.50;;;;;;4963948;28;20821;-54
2024/01/06 02:30:29;;;;;;;0.80;0.50;;;22.40;35.60;;;;;;4968793;28;20069;-54
2024/01/06 02:32:56;;;;;;;0.52;0.40;;;22.40;35.60;;;;;;4965005;28;20391;-56
2024/01/06 02:38:47;;;;;;;0.57;0.35;;;22.50;35.70;;;;;;4962100;28;20053;-55
2024/01/06 02:41:14;;;;;;;1.27;0.35;;;22.60;35.60;;;;;;4964161;28;20051;-56
2024/01/06 02:43:41;;;;;;;0.38;0.30;;;22.60;35.50;;;;;;4966714;28;20531;-55
2024/01/06 02:46:09;;;;;;;0.45;0.30;;;22.60;35.50;;;;;;4967931;28;20054;-55
2024/01/06 02:48:36;;;;;;;0.40;0.40;;;22.70;35.50;;;;;;4964817;28;20403;-57
2024/01/06 02:51:03;;;;;;;0.75;0.50;;;22.70;35.50;;;;;;4968039;28;20061;-56
2024/01/06 02:53:30;;;;;;;0.55;0.40;;;22.70;35.50;;;;;;4963809;28;20058;-55
2024/01/06 02:55:59;;;;;;;0.30;0.30;;;22.70;35.50;;;;;;4962558;28;20050;-56
2024/01/06 02:58:26;;;;;;;0.40;0.40;;;22.70;35.40;;;;;;4967147;28;20069;-57
2024/01/06 03:00:53;;;;;;;0.68;0.47;;;22.70;35.40;;;;;;4962087;28;20117;-54
2024/01/06 03:03:20;;;;;;;0.75;0.40;;;22.70;35.30;;;;;;4965711;28;20054;-55
2024/01/06 03:05:48;;;;;;;0.63;0.50;;;22.70;35.30;;;;;;4964479;28;20069;-56
2024/01/06 03:08:16;;;;;;;0.68;0.32;;;22.80;35.40;;;;;;4969769;28;20057;-54
2024/01/06 03:10:44;;;;;;;0.57;0.40;;;22.70;35.40;;;;;;4965450;28;20061;-53
2024/01/06 03:13:12;;;;;;;0.63;0.40;;;22.70;35.30;;;;;;4962555;28;20078;-55
2024/01/06 03:15:40;;;;;;;0.35;0.30;;;22.70;35.30;;;;;;4964301;28;20416;-56
2024/01/06 03:18:08;;;;;;;0.47;0.35;;;22.70;35.30;;;;;;4966000;28;20055;-56
2024/01/06 03:20:35;;;;;;;0.57;0.30;;;22.70;35.30;;;;;;4957794;28;20051;-54
2024/01/06 03:23:02;;;;;;;0.88;0.50;;;22.70;35.30;;;;;;4965977;28;20055;-56
2024/01/06 03:25:30;;;;;;;0.43;0.40;;;22.60;35.30;;;;;;4963711;28;20059;-53
2024/01/06 03:27:57;;;;;;;0.82;0.40;;;22.70;35.40;;;;;;4966977;28;20057;-56
2024/01/06 03:30:25;;;;;;;1.40;0.50;;;22.60;35.30;;;;;;4957449;28;20411;-55
2024/01/06 03:32:52;;;;;;;0.38;0.30;;;22.60;35.30;;;;;;4968936;28;20050;-56
2024/01/06 03:35:19;;;;;;;0.47;0.47;;;22.60;35.30;;;;;;4961285;28;20492;-58
2024/01/06 03:37:47;;;;;;;2.40;0.43;;;22.50;35.30;;;;;;4962363;28;20487;-56
2024/01/06 03:40:14;;;;;;;0.38;0.38;;;22.50;35.30;;;;;;4963994;28;20062;-58
2024/01/06 03:42:41;;;;;;;0.73;0.52;;;22.50;35.30;;;;;;4963091;28;20066;-57
2024/01/06 03:45:09;;;;;;;0.85;0.60;;;22.50;35.40;;;;;;4966418;28;20046;-58
2024/01/06 03:47:37;;;;;;;0.57;0.50;;;22.50;35.40;;;;;;4965088;28;20490;-56
2024/01/06 03:50:05;;;;;;;1.10;0.50;;;22.50;35.40;;;;;;4966812;28;20400;-58
2024/01/06 03:52:32;;;;;;;1.00;0.50;;;22.40;35.40;;;;;;4962373;28;20062;-57
2024/01/06 03:54:59;;;;;;;0.90;0.60;;;22.40;35.40;;;;;;4956590;28;20051;-57
2024/01/06 03:57:26;;;;;;;0.60;0.60;;;22.40;35.40;;;;;;4961327;28;20054;-57
2024/01/06 03:59:54;;;;;;;0.73;0.55;;;22.40;35.50;;;;;;4963720;28;20055;-57
2024/01/06 04:02:21;;;;;;;0.88;0.50;;;22.30;35.50;;;;;;4956058;28;20069;-58
2024/01/06 04:04:49;;;;;;;1.15;0.63;;;22.30;35.60;;;;;;4963965;28;20058;-57
2024/01/06 04:07:16;;;;;;;0.93;0.73;;;22.30;35.60;;;;;;4966993;28;20054;-58
2024/01/06 04:19:52;;;;;;;6.53;0.80;;;22.60;35.70;;;;;;4970108;28;20042;-58
2024/01/06 04:22:20;;;;;;;3.00;1.25;;;22.60;35.70;;;;;;4966745;28;20066;-58
2024/01/06 04:24:47;;;;;;;5.18;1.48;;;22.70;35.50;;;;;;4964835;28;20063;-57
2024/01/06 04:27:14;;;;;;;15.25;1.80;;;22.60;35.20;;;;;;4963896;28;20458;-59
2024/01/06 04:29:41;;;;;;;5.68;1.63;;;22.60;35.00;;;;;;4966698;28;20054;-57
2024/01/06 04:32:08;;;;;;;3.63;0.90;;;22.60;35.20;;;;;;4965893;28;20077;-58
2024/01/06 04:34:35;;;;;;;2.17;1.20;;;22.60;35.30;;;;;;4964973;28;20058;-59
2024/01/06 04:37:04;;;;;;;0.98;0.82;;;22.70;35.30;;;;;;4954502;28;20058;-57
2024/01/06 04:39:31;;;;;;;1.77;0.63;;;22.70;35.40;;;;;;4966276;28;20057;-58
2024/01/06 04:41:58;;;;;;;2.85;1.00;;;22.70;35.40;;;;;;4969197;28;20629;-58
2024/01/06 04:44:25;;;;;;;1.98;0.98;;;22.70;35.40;;;;;;4963525;28;20062;-55
2024/01/06 04:46:53;;;;;;;1.17;1.00;;;22.70;35.40;;;;;;4966780;28;20046;-53
2024/01/06 04:49:20;;;;;;;6.53;1.50;;;22.70;35.40;;;;;;4961686;28;20522;-55
2024/01/06 04:51:48;;;;;;;2.78;0.80;;;22.70;35.50;;;;;;4964876;28;20058;-52
2024/01/06 04:54:16;;;;;;;1.27;0.90;;;22.70;35.40;;;;;;4961169;28;20054;-54
2024/01/06 04:56:44;;;;;;;1.30;0.80;;;22.70;35.40;;;;;;4962824;28;20059;-55
2024/01/06 04:59:11;;;;;;;1.27;1.00;;;22.70;35.50;;;;;;4966703;28;20407;-56
2024/01/06 05:01:38;;;;;;;1.17;0.80;;;22.70;35.50;;;;;;4970374;28;20054;-52
2024/01/06 05:04:05;;;;;;;2.75;0.90;;;22.60;35.40;;;;;;4964396;28;20415;-55
2024/01/06 05:06:32;;;;;;;1.50;0.82;;;22.60;35.40;;;;;;4966360;28;20051;-55
2024/01/06 05:08:59;;;;;;;2.67;0.80;;;22.60;35.40;;;;;;4967327;28;20050;-55
2024/01/06 05:11:28;;;;;;;2.47;0.90;;;22.60;35.40;;;;;;4968080;28;20690;-56
2024/01/06 05:13:55;;;;;;;1.45;1.00;;;22.60;35.40;;;;;;4969562;28;20059;-54
2024/01/06 05:16:22;;;;;;;1.20;1.10;;;22.60;35.50;;;;;;4964665;28;20047;-57
2024/01/06 05:18:50;;;;;;;0.80;0.73;;;22.60;35.50;;;;;;4966627;28;20062;-52
2024/01/06 05:21:17;;;;;;;0.80;0.80;;;22.50;35.40;;;;;;4967325;28;20050;-55
2024/01/06 05:23:44;;;;;;;1.70;1.20;;;22.60;35.50;;;;;;4967684;28;20059;-54
2024/01/06 05:26:13;;;;;;;1.00;0.90;;;22.50;35.50;;;;;;4961106;28;20077;-55
2024/01/06 05:28:42;;;;;;;1.13;1.00;;;22.50;35.50;;;;;;4971557;28;20055;-54
2024/01/06 05:31:09;;;;;;;1.60;1.27;;;22.50;35.50;;;;;;4961132;28;20054;-52
2024/01/06 05:33:36;;;;;;;2.17;1.40;;;22.50;35.50;;;;;;4962389;28;20065;-52
2024/01/06 05:36:04;;;;;;;3.88;1.63;;;22.40;35.50;;;;;;4966989;28;20412;-49
2024/01/06 05:38:31;;;;;;;2.80;1.40;;;22.40;35.50;;;;;;4967562;28;20050;-52
2024/01/06 05:40:58;;;;;;;2.25;1.30;;;22.40;35.50;;;;;;4960290;28;20054;-46
2024/01/06 05:43:25;;;;;;;3.25;1.58;;;22.40;35.50;;;;;;4967417;28;20047;-50
2024/01/06 05:45:54;;;;;;;2.58;1.50;;;22.40;36.20;;;;;;4967808;28;20074;-48
2024/01/06 05:48:21;;;;;;;2.58;1.90;;;22.40;35.70;;;;;;4966196;28;20050;-53
2024/01/06 05:50:48;;;;;;;6.78;2.08;;;22.30;35.70;;;;;;4964744;28;20054;-53
2024/01/06 05:53:18;;;;;;;7.03;1.90;;;22.30;35.70;;;;;;4967696;28;20054;-55
2024/01/06 05:55:45;;;;;;;7.25;2.00;;;22.30;35.80;;;;;;4966867;28;20109;-57
2024/01/06 05:58:13;;;;;;;6.07;2.60;;;22.30;35.80;;;;;;4964338;28;20051;-58
2024/01/06 06:00:40;;;;;;;2.60;2.40;;;22.20;35.80;;;;;;4969174;28;20050;-59
2024/01/06 06:03:08;;;;;;;45.97;27.05;;;22.20;35.80;;;;;;4962219;28;20426;-58
2024/01/06 06:05:34;;;;;;;113.40;68.32;;;22.20;35.80;;;;;;4965398;28;20669;-57
2024/01/06 06:08:02;;;;;;;85.45;51.28;;;22.20;35.70;;;;;;4964425;28;20046;-57
2024/01/06 06:10:40;;;;;;;43.83;25.63;;;22.20;35.80;;;;;;4969233;28;20055;-54
2024/01/06 06:13:10;;;;;;;24.10;15.10;;;22.10;35.80;;;;;;4962444;28;20050;-55
2024/01/06 06:15:37;;;;;;;21.42;13.52;;;22.10;35.90;;;;;;4966749;28;20050;-56
2024/01/06 06:18:05;;;;;;;23.73;13.63;;;22.10;35.90;;;;;;4967844;28;20415;-55
2024/01/06 06:20:33;;;;;;;19.95;11.93;;;22.00;36.00;;;;;;4963706;28;20500;-57
2024/01/06 06:23:01;;;;;;;19.10;11.93;;;22.00;36.00;;;;;;4964736;28;20053;-55
2024/01/06 06:25:28;;;;;;;18.88;11.75;;;22.00;36.00;;;;;;4964875;28;20061;-55
2024/01/06 06:27:55;;;;;;;14.63;9.77;;;22.00;36.10;;;;;;4963175;28;20066;-57
2024/01/06 06:30:22;;;;;;;15.15;9.25;;;22.00;36.00;;;;;;4966142;28;20061;-54
2024/01/06 06:32:49;;;;;;;15.10;8.80;;;21.90;36.00;;;;;;4971056;28;20050;-58
2024/01/06 06:35:16;;;;;;;16.23;9.40;;;21.90;36.00;;;;;;4970586;28;20059;-57
2024/01/06 06:37:45;;;;;;;40.35;24.00;;;21.90;36.10;;;;;;4972621;28;20047;-56
2024/01/06 06:40:12;;;;;;;39.80;23.85;;;21.90;36.10;;;;;;4970159;28;20077;-57
2024/01/06 06:42:39;;;;;;;25.27;15.20;;;21.80;36.00;;;;;;4964845;28;20066;-56
2024/01/06 06:45:07;;;;;;;15.43;9.85;;;21.90;36.10;;;;;;4962960;28;20054;-55
2024/01/06 06:47:35;;;;;;;14.70;9.05;;;21.80;36.20;;;;;;4965889;28;20051;-56
2024/01/06 06:50:02;;;;;;;19.88;9.30;;;21.80;36.20;;;;;;4967772;28;20387;-57
2024/01/06 06:52:29;;;;;;;19.02;8.30;;;21.80;36.20;;;;;;4964303;28;20145;-59
2024/01/06 06:54:57;;;;;;;11.52;7.60;;;21.70;36.20;;;;;;4967741;28;20058;-58
2024/01/06 06:57:25;;;;;;;13.43;7.88;;;21.70;36.30;;;;;;4968643;28;20067;-60
2024/01/06 06:59:52;;;;;;;10.90;7.30;;;21.70;36.30;;;;;;4966106;28;20055;-57
2024/01/06 07:02:19;;;;;;;13.05;6.93;;;21.70;36.30;;;;;;4964434;28;20062;-59
2024/01/06 07:04:46;;;;;;;17.00;7.03;;;21.70;36.30;;;;;;4962286;28;20488;-59
2024/01/06 07:07:12;;;;;;;69.00;42.85;;;21.70;36.30;;;;;;4964932;28;20055;-57
2024/01/06 07:09:41;;;;;;;252.52;141.15;;;21.70;36.40;;;;;;4964214;28;20045;-55
2024/01/06 07:12:09;;;;;;;148.77;86.00;;;21.60;36.30;;;;;;4966486;28;20423;-60
2024/01/06 07:14:37;;;;;;;120.07;64.95;;;21.60;36.30;;;;;;4967372;28;20058;-55
2024/01/06 07:17:04;;;;;;;74.75;42.08;;;21.60;36.40;;;;;;4971396;28;20062;-58
2024/01/06 07:19:33;;;;;;;64.65;37.38;;;21.60;36.50;;;;;;4969712;28;20610;-59
2024/01/06 07:22:00;;;;;;;61.67;35.22;;;21.60;36.50;;;;;;4963467;28;20510;-58
2024/01/06 07:24:27;;;;;;;56.00;31.70;;;21.50;36.50;;;;;;4970418;28;20495;-59
2024/01/06 07:26:55;;;;;;;46.20;28.63;;;21.50;36.50;;;;;;4971999;28;20065;-59
2024/01/06 07:29:25;;;;;;;41.45;26.23;;;21.50;36.50;;;;;;4962369;28;20062;-60
2024/01/06 07:31:52;;;;;;;41.65;26.00;;;21.50;36.50;;;;;;4968783;28;20058;-62
2024/01/06 07:34:19;;;;;;;45.63;27.20;;;21.50;36.50;;;;;;4968732;28;20070;-58
2024/01/06 07:36:47;;;;;;;36.67;24.10;;;21.50;36.50;;;;;;4963217;28;21121;-60
2024/01/06 07:39:14;;;;;;;41.90;25.95;;;21.50;36.60;;;;;;4966600;28;20054;-60
2024/01/06 07:41:41;;;;;;;40.63;24.05;;;21.40;36.60;;;;;;4960761;28;20054;-59
2024/01/06 07:44:08;;;;;;;40.78;24.38;;;21.50;36.70;;;;;;4965932;28;20050;-59
2024/01/06 07:46:39;;;;;;;35.33;21.40;;;21.50;36.80;;;;;;4964910;28;20054;-59
2024/01/06 07:49:06;;;;;;;32.08;20.35;;;21.50;36.80;;;;;;4965578;28;20051;-62
2024/01/06 07:51:35;;;;;;;38.10;20.30;;;21.50;36.90;;;;;;4963446;28;20077;-61
2024/01/06 07:54:39;;;;;;;28.92;17.35;;;21.40;36.90;;;;;;4964710;28;20050;-61
2024/01/06 07:57:06;;;;;;;32.80;16.50;;;21.40;36.90;;;;;;4963679;28;20051;-57
2024/01/06 07:59:34;;;;;;;24.83;16.13;;;21.40;36.90;;;;;;4969022;28;20077;-60
2024/01/06 08:02:02;;;;;;;26.05;15.88;;;21.40;36.90;;;;;;4970320;28;20517;-58
2024/01/06 08:04:29;;;;;;;25.85;15.75;;;21.40;36.90;;;;;;4963124;28;20762;-58
2024/01/06 08:06:58;;;;;;;24.58;15.35;;;21.40;36.90;;;;;;4962432;28;20055;-59
2024/01/06 08:09:25;;;;;;;21.52;13.52;;;21.40;36.90;;;;;;4957839;28;20058;-57
2024/01/06 08:11:53;;;;;;;22.15;13.50;;;21.40;36.90;;;;;;4964904;28;20051;-59
2024/01/06 08:14:20;;;;;;;19.35;12.43;;;21.30;36.80;;;;;;4966710;28;20051;-58
2024/01/06 08:16:47;;;;;;;16.13;11.40;;;21.30;36.90;;;;;;4967041;28;20055;-58
2024/01/06 08:19:16;;;;;;;19.80;12.73;;;21.40;37.00;;;;;;4965440;28;20051;-57
2024/01/06 08:21:43;;;;;;;16.05;10.68;;;21.30;36.90;;;;;;4958777;28;20051;-59
2024/01/06 08:24:10;;;;;;;18.52;10.18;;;21.30;36.90;;;;;;4960833;28;20061;-58
2024/01/06 08:26:38;;;;;;;19.83;11.60;;;21.30;36.90;;;;;;4959289;28;20066;-59
2024/01/06 08:29:05;;;;;;;27.23;12.05;;;21.30;36.90;;;;;;4965743;28;20051;-57
2024/01/06 08:31:33;;;;;;;22.00;10.35;;;21.30;37.00;;;;;;4965211;28;20055;-57
2024/01/06 08:34:00;;;;;;;14.35;8.93;;;21.30;37.00;;;;;;4968382;28;20066;-57
2024/01/06 08:36:31;;;;;;;17.52;9.55;;;21.20;36.90;;;;;;4969791;28;20062;-58
2024/01/06 08:38:58;;;;;;;15.82;9.23;;;21.20;36.90;;;;;;4963673;28;20054;-61
2024/01/06 08:41:25;;;;;;;25.30;8.35;;;21.20;37.00;;;;;;4969020;28;20522;-61
2024/01/06 08:43:52;;;;;;;16.38;7.78;;;21.20;37.00;;;;;;4963549;28;20065;-59
2024/01/06 08:46:19;;;;;;;12.50;7.43;;;21.20;36.90;;;;;;4965712;28;20609;-59
2024/01/06 08:48:46;;;;;;;11.93;7.60;;;21.20;36.90;;;;;;4965615;28;20680;-58
2024/01/06 08:51:14;;;;;;;12.18;7.18;;;21.20;36.90;;;;;;4967630;28;20051;-60
2024/01/06 08:53:42;;;;;;;9.93;7.03;;;21.20;36.90;;;;;;4962213;28;20063;-58
2024/01/06 08:56:10;;;;;;;14.60;6.85;;;21.10;36.90;;;;;;4969494;28;20062;-61
2024/01/06 08:58:37;;;;;;;16.45;6.50;;;21.10;36.90;;;;;;4961130;28;20059;-58
2024/01/06 09:01:04;;;;;;;17.80;6.25;;;21.10;37.00;;;;;;4960473;28;20470;-59
2024/01/06 09:03:31;;;;;;;12.90;6.70;;;21.10;37.10;;;;;;4966280;28;20055;-59
2024/01/06 09:05:58;;;;;;;14.82;6.75;;;21.10;37.20;;;;;;4970221;28;20506;-59
2024/01/06 09:08:26;;;;;;;10.73;5.45;;;21.10;37.30;;;;;;4969386;28;20062;-57
2024/01/06 09:10:57;;;;;;;11.05;5.13;;;21.20;37.40;;;;;;4968489;28;20078;-60
2024/01/06 09:13:24;;;;;;;10.60;5.45;;;21.20;37.50;;;;;;4964998;28;20047;-59
2024/01/06 09:15:52;;;;;;;8.77;5.45;;;21.30;37.60;;;;;;4963424;28;20054;-57
2024/01/06 09:18:19;;;;;;;31.25;6.05;;;21.40;37.70;;;;;;4959905;28;20058;-59
2024/01/06 09:20:47;;;;;;;12.25;5.13;;;21.50;37.80;;;;;;4966650;28;20077;-60
2024/01/06 09:23:14;;;;;;;9.73;5.35;;;21.60;37.80;;;;;;4964375;28;20054;-60
2024/01/06 09:25:42;;;;;;;7.95;5.50;;;21.60;37.80;;;;;;4966353;28;20055;-56
2024/01/06 09:28:10;;;;;;;8.50;5.63;;;21.70;38.30;;;;;;4962292;28;20051;-54
2024/01/06 09:30:38;;;;;;;7.65;5.10;;;21.80;37.70;;;;;;4965483;28;20410;-57
2024/01/06 09:33:05;;;;;;;8.40;5.03;;;21.90;37.80;;;;;;4965837;28;20511;-60
2024/01/06 09:35:32;;;;;;;16.45;5.35;;;22.00;37.90;;;;;;4967840;28;20070;-58
2024/01/06 09:37:59;;;;;;;10.18;5.68;;;22.10;37.90;;;;;;4963660;28;20051;-59
2024/01/06 09:40:26;;;;;;;8.00;4.63;;;22.20;37.80;;;;;;4965142;28;20066;-59
2024/01/06 09:42:54;;;;;;;7.68;5.15;;;22.30;37.70;;;;;;4961390;28;20054;-56
2024/01/06 09:45:23;;;;;;;7.95;5.03;;;22.30;37.60;;;;;;4963567;28;20059;-51
2024/01/06 09:47:52;;;;;;;7.85;4.60;;;22.40;37.50;;;;;;4967498;28;20054;-53
2024/01/06 09:50:20;;;;;;;11.93;5.07;;;22.50;37.50;;;;;;4970140;28;20058;-51
2024/01/06 09:52:53;;;;;;;8.55;4.63;;;22.50;37.40;;;;;;4968356;28;20415;-55
2024/01/06 09:55:25;;;;;;;15.82;8.73;;;22.60;37.30;;;;;;4967059;28;20499;-52
2024/01/06 09:57:53;;;;;;;15.95;8.98;;;22.70;36.30;;;;;;4972619;28;20112;-56
2024/01/06 10:00:21;;;;;;;11.02;8.10;;;22.60;35.50;;;;;;4970984;28;20053;-54
2024/01/06 10:02:50;;;;;;;11.55;8.00;;;22.60;35.50;;;;;;4967808;28;20419;-51
2024/01/06 10:05:18;;;;;;;14.88;7.97;;;22.50;35.30;;;;;;4964448;28;20054;-50
2024/01/06 10:07:46;;;;;;;13.50;7.05;;;22.50;35.50;;;;;;4964490;28;20487;-52
2024/01/06 10:10:13;;;;;;;9.35;6.32;;;22.50;35.80;;;;;;4965924;28;20479;-53
2024/01/06 10:12:42;;;;;;;8.82;5.35;;;22.50;36.00;;;;;;4968241;28;20060;-53
2024/01/06 10:15:10;;;;;;;6.53;5.03;;;22.50;36.10;;;;;;4969319;28;20065;-55
2024/01/06 10:17:39;;;;;;;15.85;5.25;;;22.50;36.10;;;;;;4963551;28;20507;-54
2024/01/06 10:20:10;;;;;;;7.55;4.95;;;22.60;36.30;;;;;;4968065;28;20054;-50
2024/01/06 10:22:38;;;;;;;8.45;5.28;;;22.60;36.20;;;;;;4967853;28;20054;-53
2024/01/06 10:25:07;;;;;;;5.95;4.80;;;22.60;36.20;;;;;;4965230;28;20059;-54
2024/01/06 10:27:38;;;;;;;8.85;4.90;;;22.70;36.20;;;;;;4965440;28;20054;-53
2024/01/06 10:30:07;;;;;;;12.18;4.97;;;22.80;36.20;;;;;;4963989;28;20483;-52
2024/01/06 10:32:34;;;;;;;6.82;5.00;;;22.80;36.20;;;;;;4966108;28;20121;-53
2024/01/06 10:35:03;;;;;;;10.13;5.38;;;22.80;36.00;;;;;;4964858;28;20047;-56
2024/01/06 10:37:32;;;;;;;7.50;5.43;;;22.90;35.90;;;;;;4965043;28;20059;-55
2024/01/06 10:40:09;;;;;;;9.88;5.43;;;22.90;35.70;;;;;;4962496;28;20054;-56
2024/01/06 10:42:39;;;;;;;9.65;5.00;;;22.90;35.70;;;;;;4960778;28;20047;-53
2024/01/06 10:45:09;;;;;;;12.20;5.57;;;23.00;35.70;;;;;;4966155;28;20400;-55
2024/01/06 10:47:36;;;;;;;25.38;5.80;;;23.00;35.60;;;;;;4968091;28;20061;-56
2024/01/06 10:50:04;;;;;;;10.45;6.10;;;23.00;36.10;;;;;;4962468;28;20053;-56
2024/01/06 10:52:33;;;;;;;76.57;32.58;;;23.00;35.60;;;;;;4959497;28;20062;-55
2024/01/06 10:55:00;;;;;;;78.13;32.35;;;23.00;35.70;;;;;;4962873;28;20062;-55
2024/01/06 10:57:31;;;;;;;70.88;33.17;;;23.00;35.70;;;;;;4965953;28;20067;-53
2024/01/06 11:00:00;;;;;;;55.53;23.90;;;23.00;35.60;;;;;;4964838;28;20047;-55
2024/01/06 11:02:28;;;;;;;65.82;27.02;;;23.00;35.50;;;;;;4965080;28;20047;-55
2024/01/06 11:04:55;;;;;;;51.67;26.42;;;23.00;35.50;;;;;;4966031;28;20059;-53
2024/01/06 11:07:25;;;;;;;71.20;33.70;;;23.00;35.50;;;;;;4963947;28;20066;-56
2024/01/06 11:09:59;;;;;;;65.05;30.80;;;23.00;35.70;;;;;;4965164;28;20066;-53
2024/01/06 11:12:26;;;;;;;46.28;22.70;;;23.00;35.90;;;;;;4961271;28;20519;-52
2024/01/06 11:14:54;;;;;;;39.88;18.75;;;23.00;35.90;;;;;;4966184;28;20491;-53
2024/01/06 11:17:53;;;;;;;34.38;15.75;;;23.00;35.70;;;;;;4961996;28;20066;-51
2024/01/06 11:20:21;;;;;;;31.23;15.18;;;22.90;35.70;;;;;;4960063;28;20047;-48
2024/01/06 11:22:49;;;;;;;30.35;14.85;;;23.00;35.60;;;;;;4962419;28;20057;-49
2024/01/06 11:25:19;;;;;;;26.77;13.43;;;22.90;35.60;;;;;;4961866;28;20054;-49
2024/01/06 11:27:48;;;;;;;25.58;12.32;;;22.90;35.60;;;;;;4962998;28;20055;-50
2024/01/06 11:30:22;;;;;;;25.10;12.45;;;22.90;35.60;;;;;;4963634;28;20062;-53
2024/01/06 11:32:53;;;;;;;27.45;11.90;;;22.90;35.60;;;;;;4965898;28;20043;-56
2024/01/06 11:35:21;;;;;;;24.95;10.80;;;22.80;35.60;;;;;;4965382;28;20418;-54
2024/01/06 11:37:56;;;;;;;20.17;10.13;;;22.80;35.60;;;;;;4962605;28;20057;-53
2024/01/06 11:40:32;;;;;;;15.23;9.65;;;22.80;35.50;;;;;;4962059;28;20051;-55
2024/01/06 11:43:02;;;;;;;22.10;9.60;;;22.70;35.40;;;;;;4960683;28;20059;-54
2024/01/06 11:45:30;;;;;;;18.05;7.97;;;22.70;35.40;;;;;;4963151;28;20534;-54
2024/01/06 11:47:58;;;;;;;13.07;8.13;;;22.70;35.50;;;;;;4964464;28;20058;-53
2024/01/06 11:50:26;;;;;;;15.48;8.15;;;22.60;35.40;;;;;;4964982;28;20047;-54
2024/01/06 11:52:54;;;;;;;13.90;8.52;;;22.60;35.40;;;;;;4968079;28;20051;-54
2024/01/06 11:55:21;;;;;;;16.92;7.53;;;22.60;35.50;;;;;;4962808;28;20499;-51
2024/01/06 11:57:50;;;;;;;9.77;6.93;;;22.50;35.50;;;;;;4968864;28;20058;-52
2024/01/06 12:00:18;;;;;;;10.77;6.85;;;22.50;35.40;;;;;;4968889;28;20061;-52
2024/01/06 12:02:46;;;;;;;10.02;6.75;;;22.50;35.90;;;;;;4967997;28;20058;-53
2024/01/06 12:05:15;;;;;;;10.38;6.63;;;22.50;35.40;;;;;;4964372;28;20059;-54
2024/01/06 12:07:43;;;;;;;10.43;6.90;;;22.40;35.40;;;;;;4967593;28;20058;-51
2024/01/06 12:10:11;;;;;;;10.93;6.70;;;22.40;35.50;;;;;;4968069;28;20495;-52
2024/01/06 12:12:39;;;;;;;8.27;6.18;;;22.40;35.50;;;;;;4962165;28;20051;-52
2024/01/06 12:15:09;;;;;;;8.07;5.70;;;22.30;35.50;;;;;;4962934;28;20058;-52
2024/01/06 12:17:37;;;;;;;8.70;5.85;;;22.30;35.50;;;;;;4966600;28;20051;-53
2024/01/06 12:20:05;;;;;;;8.52;6.05;;;22.30;35.60;;;;;;4966737;28;20062;-53
2024/01/06 12:22:32;;;;;;;6.40;5.00;;;22.30;35.60;;;;;;4969910;28;20507;-56
2024/01/06 12:25:00;;;;;;;7.93;5.43;;;22.30;35.70;;;;;;4970139;28;20050;-51
2024/01/06 12:27:28;;;;;;;7.00;4.97;;;22.30;35.90;;;;;;4968430;28;20102;-56
2024/01/06 12:29:55;;;;;;;8.90;4.63;;;22.30;35.90;;;;;;4969313;28;20392;-55
2024/01/06 12:32:25;;;;;;;9.52;6.10;;;22.30;36.00;;;;;;4965287;28;20491;-57
2024/01/06 12:34:52;;;;;;;17.98;5.78;;;22.30;35.20;;;;;;4967970;28;20051;-52
2024/01/06 12:37:19;;;;;;;10.57;4.40;;;22.30;35.60;;;;;;4969348;28;20055;-54
2024/01/06 12:39:48;;;;;;;6.65;4.20;;;22.30;35.80;;;;;;4966660;28;20066;-55
2024/01/06 12:42:17;;;;;;;7.55;4.07;;;22.30;36.10;;;;;;4967711;28;20051;-55
2024/01/06 12:44:44;;;;;;;5.57;3.65;;;22.40;36.30;;;;;;4969589;28;20059;-53
2024/01/06 12:47:12;;;;;;;5.22;3.90;;;22.40;36.50;;;;;;4967981;28;20411;-55
2024/01/06 12:49:40;;;;;;;5.15;3.88;;;22.40;36.60;;;;;;4966863;28;20058;-52
2024/01/06 12:52:08;;;;;;;6.60;3.80;;;22.40;36.60;;;;;;4966379;28;20480;-52
2024/01/06 12:54:35;;;;;;;5.93;4.03;;;22.40;36.70;;;;;;4965484;28;20055;-55
2024/01/06 12:57:03;;;;;;;6.72;3.67;;;22.40;36.80;;;;;;4967253;28;20058;-54